Time;durP1;ratioP1;P1;durP2;ratioP2;P2;SDS_P1;SDS_P2;PMS_P1;PMS_P2;Temp;Humidity;BMP_temperature;BMP_pressure;BME280_temperature;BME280_humidity;BME280_pressure;Samples;Min_cycle;Max_cycle;Signal;HPM_P1;HPM_P2
2021/06/05 00:01:30;;;;;;;7.28;3.45;;;;;;;18.93;75.60;100855.25;5051824;28;20030;-78
2021/06/05 00:03:56;;;;;;;5.13;3.38;;;;;;;18.87;75.87;100875.59;5049741;28;20033;-77
2021/06/05 00:06:24;;;;;;;4.22;3.03;;;;;;;18.79;76.99;100873.91;5057854;28;20047;-77
2021/06/05 00:08:49;;;;;;;4.43;3.85;;;;;;;18.80;75.92;100875.56;5056651;28;20124;-77
2021/06/05 00:11:18;;;;;;;6.25;3.65;;;;;;;18.75;76.37;100882.50;5057430;28;20040;-78
2021/06/05 00:13:47;;;;;;;9.48;4.28;;;;;;;18.71;76.90;100878.56;5056195;28;20045;-78
2021/06/05 00:16:19;;;;;;;5.70;4.00;;;;;;;18.62;78.23;100883.25;5048603;28;20036;-77
2021/06/05 00:18:49;;;;;;;4.60;3.60;;;;;;;18.54;78.50;100886.06;5038756;28;20040;-77
2021/06/05 00:21:15;;;;;;;6.30;3.85;;;;;;;18.54;77.67;100884.22;5057348;28;20108;-78
2021/06/05 00:23:40;;;;;;;4.70;2.90;;;;;;;18.52;77.49;100878.25;5055444;28;20033;-77
2021/06/05 00:26:07;;;;;;;5.68;3.60;;;;;;;18.53;76.96;100876.41;5055200;28;20549;-78
2021/06/05 00:28:33;;;;;;;5.57;3.60;;;;;;;18.52;78.54;100874.72;5052899;28;20061;-78
2021/06/05 00:31:00;;;;;;;5.07;2.80;;;;;;;18.43;78.84;100877.56;5056394;28;20108;-78
2021/06/05 00:33:26;;;;;;;4.22;3.25;;;;;;;18.45;77.10;100882.75;5063709;28;20071;-78
2021/06/05 00:35:52;;;;;;;5.28;3.13;;;;;;;18.44;77.58;100881.88;5036523;28;20029;-78
2021/06/05 00:38:20;;;;;;;5.38;3.45;;;;;;;18.37;77.83;100872.16;5048849;28;20552;-78
2021/06/05 00:40:49;;;;;;;4.68;3.20;;;;;;;18.34;78.88;100877.91;5047357;28;20296;-77
2021/06/05 00:43:17;;;;;;;4.03;2.90;;;;;;;18.31;78.33;100865.75;5054467;28;20098;-78
2021/06/05 00:45:45;;;;;;;4.57;3.00;;;;;;;18.28;77.82;100876.00;5058131;28;20040;-78
2021/06/05 00:48:11;;;;;;;3.90;2.08;;;;;;;18.26;77.80;100873.53;5057106;28;20059;-78
2021/06/05 00:50:38;;;;;;;4.15;2.35;;;;;;;18.23;78.54;100868.53;5052730;28;20072;-78
2021/06/05 00:53:05;;;;;;;3.53;2.20;;;;;;;18.23;78.61;100868.53;5041201;28;20044;-78
2021/06/05 00:55:35;;;;;;;2.38;1.90;;;;;;;18.23;78.97;100868.53;5057719;28;20041;-78
2021/06/05 00:58:00;;;;;;;3.93;2.30;;;;;;;18.20;78.63;100863.59;5057572;28;20037;-78
2021/06/05 01:00:48;;;;;;;3.10;2.28;;;;;;;18.14;78.52;100862.53;5053153;28;20383;-78
2021/06/05 01:03:15;;;;;;;3.35;2.40;;;;;;;18.07;78.66;100863.47;5056883;28;20044;-78
2021/06/05 01:05:42;;;;;;;3.83;2.20;;;;;;;17.97;78.68;100853.09;5061182;28;20032;-78
2021/06/05 01:08:08;;;;;;;2.65;2.10;;;;;;;17.95;79.03;100855.97;5058605;28;20025;-78
2021/06/05 01:10:36;;;;;;;2.73;2.13;;;;;;;17.95;78.38;100855.16;5053114;28;20048;-78
2021/06/05 01:13:22;;;;;;;3.28;2.20;;;;;;;17.89;78.46;100843.34;5058529;28;20078;-78
2021/06/05 01:15:54;;;;;;;2.30;1.80;;;;;;;17.87;78.46;100849.91;5058265;28;20029;-78
2021/06/05 01:18:28;;;;;;;3.15;2.20;;;;;;;17.83;79.02;100844.97;5051917;28;20105;-78
2021/06/05 01:21:11;;;;;;;3.22;2.08;;;;;;;17.77;79.37;100847.53;5050675;28;20033;-78
2021/06/05 01:24:09;;;;;;;5.65;2.78;;;;;;;17.70;79.71;100855.50;5060553;28;20112;-79
2021/06/05 01:26:37;;;;;;;2.83;2.05;;;;;;;17.65;79.65;100851.75;5057740;28;20502;-78
2021/06/05 01:29:14;;;;;;;2.00;1.50;;;;;;;17.73;79.73;100856.94;5059035;28;20031;-77
2021/06/05 01:31:43;;;;;;;2.38;2.00;;;;;;;17.78;80.26;100858.06;5062867;28;20059;-77
2021/06/05 01:34:10;;;;;;;2.72;2.15;;;;;;;17.73;79.55;100852.44;5052788;28;20025;-79
2021/06/05 01:36:48;;;;;;;4.20;2.20;;;;;;;17.67;79.41;100852.38;5055054;28;20044;-78
2021/06/05 01:39:18;;;;;;;3.17;1.65;;;;;;;17.69;79.50;100850.34;5028538;28;20025;-77
2021/06/05 01:41:46;;;;;;;2.87;2.20;;;;;;;17.67;79.91;100852.38;5035710;28;20030;-78
2021/06/05 01:44:13;;;;;;;2.78;2.03;;;;;;;17.64;79.21;100858.94;5049823;28;20037;-78
2021/06/05 01:46:42;;;;;;;3.35;1.80;;;;;;;17.62;79.48;100859.13;5054009;28;20033;-78
2021/06/05 01:49:08;;;;;;;4.63;2.03;;;;;;;17.67;78.28;100850.53;5047854;28;20172;-78
2021/06/05 01:51:36;;;;;;;2.42;1.60;;;;;;;17.67;79.93;100852.38;5050936;28;20107;-78
2021/06/05 01:54:14;;;;;;;3.15;1.75;;;;;;;17.65;79.99;100852.56;5052439;28;20391;-78
2021/06/05 01:56:47;;;;;;;2.53;1.83;;;;;;;17.70;79.24;100849.31;5052786;28;20045;-78
2021/06/05 01:59:15;;;;;;;3.08;2.03;;;;;;;17.70;79.42;100846.66;5045140;28;20031;-78
2021/06/05 02:01:41;;;;;;;2.60;1.75;;;;;;;17.71;79.25;100845.59;5050496;28;20513;-78
2021/06/05 02:04:08;;;;;;;3.47;2.33;;;;;;;17.71;78.92;100848.28;5051968;28;20063;-78
2021/06/05 02:06:33;;;;;;;4.13;2.60;;;;;;;17.69;80.20;100842.31;5053873;28;20036;-78
2021/06/05 02:09:02;;;;;;;2.20;1.48;;;;;;;17.69;79.61;100845.81;5056617;28;20033;-78
2021/06/05 02:11:28;;;;;;;2.65;1.65;;;;;;;17.71;79.54;100838.44;5057322;28;20044;-78
2021/06/05 02:14:03;;;;;;;1.83;1.33;;;;;;;17.72;79.46;100844.59;5059065;28;20505;-78
2021/06/05 02:16:34;;;;;;;2.88;1.75;;;;;;;17.77;78.45;100843.00;5058516;28;20076;-78
2021/06/05 02:19:05;;;;;;;4.25;2.42;;;;;;;17.72;79.69;100836.59;5042066;28;20079;-78
2021/06/05 02:21:33;;;;;;;3.63;2.40;;;;;;;17.74;79.55;100846.06;5056294;28;20044;-78
2021/06/05 02:24:07;;;;;;;4.35;2.90;;;;;;;17.77;79.26;100842.19;5056551;28;20041;-78
2021/06/05 02:26:34;;;;;;;4.03;2.50;;;;;;;17.81;79.49;100838.97;5055720;28;20033;-77
2021/06/05 02:29:01;;;;;;;4.22;2.90;;;;;;;17.86;78.67;100838.41;5056896;28;20552;-78
2021/06/05 02:31:28;;;;;;;3.53;2.53;;;;;;;17.89;78.36;100838.00;5038394;28;20048;-78
2021/06/05 02:33:54;;;;;;;4.60;2.70;;;;;;;17.95;78.55;100826.53;5054544;28;20039;-78
2021/06/05 02:36:20;;;;;;;6.90;2.78;;;;;;;17.91;79.42;100837.81;5055772;28;20446;-77
2021/06/05 02:38:49;;;;;;;4.90;2.45;;;;;;;17.98;78.15;100834.19;5047914;28;20082;-77
2021/06/05 02:41:18;;;;;;;5.15;2.17;;;;;;;17.99;77.98;100833.13;5054426;28;20064;-78
2021/06/05 02:43:44;;;;;;;3.88;2.28;;;;;;;18.07;77.58;100831.34;5055716;28;20033;-77
2021/06/05 02:46:28;;;;;;;4.05;2.30;;;;;;;18.00;78.04;100829.47;5055595;28;20519;-78
2021/06/05 02:48:57;;;;;;;4.05;1.80;;;;;;;18.02;77.83;100827.44;5036936;28;20068;-78
2021/06/05 02:51:26;;;;;;;3.50;1.70;;;;;;;18.02;77.51;100821.25;5055894;28;20029;-78
2021/06/05 02:53:52;;;;;;;3.50;1.80;;;;;;;18.03;77.44;100823.72;5056601;28;20033;-78
2021/06/05 02:56:19;;;;;;;2.70;1.70;;;;;;;18.07;77.15;100834.03;5037582;28;20044;-77
2021/06/05 02:58:44;;;;;;;2.97;1.88;;;;;;;18.09;76.98;100832.00;5048695;28;20040;-78
2021/06/05 03:01:11;;;;;;;4.85;1.90;;;;;;;18.12;76.62;100828.94;5055092;28;20426;-78
2021/06/05 03:03:37;;;;;;;4.65;2.00;;;;;;;18.11;76.42;100825.41;5056327;28;20127;-78
2021/06/05 03:06:03;;;;;;;3.10;1.80;;;;;;;18.13;76.50;100822.56;5039719;28;20120;-78
2021/06/05 03:08:32;;;;;;;3.70;1.85;;;;;;;18.12;76.24;100823.59;5056700;28;20075;-78
2021/06/05 03:10:58;;;;;;;2.97;1.50;;;;;;;18.16;76.17;100824.84;5058981;28;20043;-78
2021/06/05 03:13:24;;;;;;;3.70;1.67;;;;;;;18.15;76.10;100825.88;5057977;28;20112;-78
2021/06/05 03:15:50;;;;;;;3.05;1.52;;;;;;;18.22;75.76;100826.75;5057358;28;20218;-78
2021/06/05 03:18:17;;;;;;;2.45;1.48;;;;;;;18.24;75.88;100830.88;5050949;28;20029;-78
2021/06/05 03:20:46;;;;;;;2.42;1.60;;;;;;;18.20;75.76;100839.50;5038571;28;20066;-78
2021/06/05 03:23:13;;;;;;;3.10;1.30;;;;;;;18.16;76.17;100832.88;5049728;28;20045;-78
2021/06/05 03:25:39;;;;;;;3.13;1.33;;;;;;;18.13;76.05;100835.94;5056562;28;20403;-78
2021/06/05 03:28:05;;;;;;;2.10;1.30;;;;;;;18.12;76.10;100837.78;5056601;28;20033;-78
2021/06/05 03:30:31;;;;;;;3.97;1.52;;;;;;;18.17;75.75;100831.88;5054078;28;20091;-78
2021/06/05 03:32:57;;;;;;;3.45;1.60;;;;;;;18.20;75.97;100828.78;5049507;28;20029;-78
2021/06/05 03:35:23;;;;;;;2.03;1.20;;;;;;;18.25;75.78;100829.03;5056481;28;20029;-78
2021/06/05 03:37:49;;;;;;;3.47;1.45;;;;;;;18.26;75.34;100830.69;5038836;28;20056;-78
2021/06/05 03:40:17;;;;;;;1.98;1.33;;;;;;;18.32;75.43;100823.72;5052576;28;20513;-78
2021/06/05 03:42:43;;;;;;;3.17;1.50;;;;;;;18.37;74.66;100821.28;5054394;28;20037;-77
2021/06/05 03:45:09;;;;;;;3.70;1.38;;;;;;;18.44;74.41;100831.00;5055926;28;20029;-77
2021/06/05 03:47:35;;;;;;;3.30;1.67;;;;;;;18.53;74.26;100829.00;5055881;28;20087;-78
2021/06/05 03:50:01;;;;;;;2.88;1.00;;;;;;;18.54;74.12;100829.84;5037617;28;20051;-78
2021/06/05 03:52:26;;;;;;;2.65;1.42;;;;;;;18.57;73.90;100832.16;5055469;28;20036;-78
2021/06/05 03:54:54;;;;;;;4.82;1.50;;;;;;;18.64;73.89;100831.16;5056114;28;20037;-78
2021/06/05 03:57:22;;;;;;;2.90;1.38;;;;;;;18.70;74.10;100842.91;5047633;28;20106;-78
2021/06/05 03:59:50;;;;;;;3.05;1.33;;;;;;;18.74;73.65;100838.00;5049615;28;20028;-78
2021/06/05 04:02:16;;;;;;;4.20;1.75;;;;;;;18.81;73.47;100844.25;5028278;28;20205;-78
2021/06/05 04:04:41;;;;;;;3.42;1.50;;;;;;;18.87;73.24;100836.22;5054347;28;20025;-77
2021/06/05 04:07:09;;;;;;;1.98;1.35;;;;;;;18.92;73.21;100838.31;5037381;28;20029;-78
2021/06/05 04:09:40;;;;;;;2.75;1.65;;;;;;;18.95;72.70;100831.72;5053634;28;20485;-78
2021/06/05 04:12:09;;;;;;;2.83;1.80;;;;;;;18.94;72.83;100825.56;5053975;28;20047;-78
2021/06/05 04:14:34;;;;;;;3.85;1.75;;;;;;;19.00;72.81;100823.94;5054082;28;20059;-78
2021/06/05 04:16:59;;;;;;;3.25;1.75;;;;;;;19.06;72.27;100820.44;5035457;28;20021;-78
2021/06/05 04:19:25;;;;;;;3.50;1.60;;;;;;;19.09;71.66;100825.41;5054468;28;20048;-77
2021/06/05 04:21:51;;;;;;;3.20;1.40;;;;;;;19.13;71.94;100826.66;5036685;28;20066;-78
2021/06/05 04:24:16;;;;;;;4.80;1.50;;;;;;;19.08;71.29;100831.81;5052353;28;20024;-79
2021/06/05 04:26:42;;;;;;;3.03;1.35;;;;;;;19.07;71.53;100824.78;5033555;28;20486;-78
2021/06/05 04:29:08;;;;;;;2.22;1.20;;;;;;;19.09;71.84;100828.06;5053950;28;20064;-78
2021/06/05 04:31:33;;;;;;;2.20;1.33;;;;;;;19.05;71.69;100824.97;5053501;28;20052;-78
2021/06/05 04:33:58;;;;;;;2.88;1.42;;;;;;;19.09;71.52;100822.72;5033592;28;20029;-78
2021/06/05 04:36:24;;;;;;;2.53;1.30;;;;;;;19.08;71.66;100837.16;5052070;28;20037;-78
2021/06/05 04:38:49;;;;;;;2.60;1.25;;;;;;;19.07;71.67;100833.66;5051471;28;20037;-79
2021/06/05 04:41:17;;;;;;;2.28;1.30;;;;;;;19.00;72.01;100831.97;5032421;28;20033;-80
2021/06/05 04:43:43;;;;;;;2.67;1.25;;;;;;;18.96;72.42;100844.94;5044153;28;20374;-78
2021/06/05 04:46:12;;;;;;;2.90;1.20;;;;;;;18.92;72.37;100838.31;5056914;28;20036;-78
2021/06/05 04:48:37;;;;;;;2.03;1.08;;;;;;;18.94;72.41;100840.81;5051987;28;20123;-78
2021/06/05 04:51:04;;;;;;;3.42;1.10;;;;;;;18.98;72.21;100848.25;5056267;28;20102;-78
2021/06/05 04:53:29;;;;;;;2.63;1.40;;;;;;;18.98;72.08;100847.44;5055947;28;20120;-80
2021/06/05 04:55:55;;;;;;;2.70;1.10;;;;;;;19.01;72.08;100842.47;5056410;28;20058;-80
2021/06/05 04:58:20;;;;;;;2.75;1.30;;;;;;;19.06;71.71;100850.75;5053402;28;20036;-80
2021/06/05 05:00:49;;;;;;;2.15;1.05;;;;;;;19.10;71.88;100843.16;5052571;28;20036;-80
2021/06/05 05:03:17;;;;;;;3.15;1.52;;;;;;;19.18;71.59;100850.19;5052399;28;20024;-80
2021/06/05 05:05:42;;;;;;;2.05;1.20;;;;;;;19.21;71.41;100853.31;5053073;28;20124;-80
2021/06/05 05:08:10;;;;;;;2.08;1.08;;;;;;;19.27;71.09;100847.13;5054460;28;20096;-80
2021/06/05 05:10:38;;;;;;;2.60;1.30;;;;;;;19.31;71.40;100848.38;5054840;28;20108;-79
2021/06/05 05:13:05;;;;;;;1.95;1.00;;;;;;;19.45;71.23;100851.94;5053445;28;20525;-79
2021/06/05 05:15:31;;;;;;;2.47;1.10;;;;;;;19.50;71.41;100851.34;5054579;28;20078;-79
2021/06/05 05:17:57;;;;;;;1.95;1.10;;;;;;;19.58;71.30;100853.00;5054316;28;20486;-79
2021/06/05 05:20:31;;;;;;;3.38;1.10;;;;;;;19.72;70.94;100852.84;5052879;28;20032;-79
2021/06/05 05:22:57;;;;;;;2.42;1.23;;;;;;;19.90;70.55;100848.72;5053253;28;20064;-79
2021/06/05 05:25:22;;;;;;;4.05;1.20;;;;;;;19.96;70.28;100844.41;5052086;28;20029;-79
2021/06/05 05:27:48;;;;;;;2.35;1.27;;;;;;;20.02;70.31;100849.78;5052190;28;20110;-80
2021/06/05 05:30:24;;;;;;;2.85;1.10;;;;;;;20.11;69.44;100845.84;5050301;28;20100;-79
2021/06/05 05:32:50;;;;;;;2.78;1.30;;;;;;;20.07;69.13;100841.94;5053310;28;20060;-79
2021/06/05 05:35:16;;;;;;;2.15;1.20;;;;;;;20.17;68.83;100846.06;5034128;28;20035;-79
2021/06/05 05:37:42;;;;;;;2.65;1.15;;;;;;;20.27;69.35;100852.66;5051946;28;20029;-79
2021/06/05 05:40:09;;;;;;;2.25;1.10;;;;;;;20.33;69.01;100848.31;5033237;28;20040;-79
2021/06/05 05:42:35;;;;;;;2.10;1.02;;;;;;;20.39;69.30;100841.28;5051883;28;20037;-79
2021/06/05 05:45:01;;;;;;;3.83;1.48;;;;;;;20.46;68.10;100848.31;5051415;28;20040;-78
2021/06/05 05:47:26;;;;;;;2.42;1.10;;;;;;;20.47;68.15;100849.13;5051137;28;20041;-78
2021/06/05 05:49:53;;;;;;;1.70;0.90;;;;;;;20.47;68.24;100849.94;5057832;28;20033;-78
2021/06/05 05:52:19;;;;;;;2.28;1.20;;;;;;;20.47;68.63;100849.94;5051602;28;20029;-78
2021/06/05 05:54:44;;;;;;;2.08;1.20;;;;;;;20.47;68.67;100858.00;5046464;28;20033;-78
2021/06/05 05:57:09;;;;;;;2.57;1.43;;;;;;;20.48;68.21;100856.16;5061348;28;20033;-78
2021/06/05 05:59:35;;;;;;;3.28;1.50;;;;;;;20.48;68.23;100856.16;5057848;28;20299;-78
2021/06/05 06:02:00;;;;;;;2.40;1.40;;;;;;;20.35;68.24;100854.28;5053185;28;20120;-78
2021/06/05 06:04:25;;;;;;;3.00;1.35;;;;;;;20.50;68.14;100851.41;5058559;28;20041;-78
2021/06/05 06:06:51;;;;;;;2.78;1.15;;;;;;;20.50;68.52;100854.91;5052305;28;20044;-79
2021/06/05 06:09:16;;;;;;;2.90;1.40;;;;;;;20.60;68.01;100851.00;5064661;28;20040;-78
2021/06/05 06:11:46;;;;;;;2.33;1.00;;;;;;;20.64;68.11;100846.84;5059784;28;20337;-79
2021/06/05 06:14:12;;;;;;;2.13;1.08;;;;;;;20.74;68.12;100861.50;5052162;28;20029;-78
2021/06/05 06:16:38;;;;;;;2.95;1.45;;;;;;;20.81;66.57;100858.81;5057730;28;20044;-78
2021/06/05 06:19:05;;;;;;;3.20;1.67;;;;;;;20.75;67.36;100862.31;5059037;28;20032;-78
2021/06/05 06:21:30;;;;;;;4.50;1.50;;;;;;;20.79;67.55;100872.44;5034046;28;20059;-78
2021/06/05 06:23:55;;;;;;;3.50;1.80;;;;;;;20.88;66.18;100869.50;5058331;28;20037;-78
2021/06/05 06:26:24;;;;;;;3.47;1.58;;;;;;;20.80;66.75;100873.25;5057811;28;20041;-78
2021/06/05 06:28:50;;;;;;;4.40;1.50;;;;;;;20.88;67.32;100878.44;5057872;28;20092;-78
2021/06/05 06:31:17;;;;;;;4.10;1.80;;;;;;;21.21;66.39;100877.47;5057850;28;20115;-78
2021/06/05 06:33:43;;;;;;;1.85;1.42;;;;;;;21.75;65.39;100872.66;5040303;28;20329;-78
2021/06/05 06:36:09;;;;;;;4.43;1.98;;;;;;;22.27;63.81;100863.38;5052144;28;20037;-78
2021/06/05 06:38:41;;;;;;;4.22;2.00;;;;;;;22.60;61.35;100880.28;5056472;28;20037;-79
2021/06/05 06:41:09;;;;;;;2.88;1.70;;;;;;;22.81;61.75;100877.16;5048389;28;20040;-78
2021/06/05 06:43:35;;;;;;;3.13;1.20;;;;;;;23.05;61.48;100872.78;5057508;28;20037;-79
2021/06/05 06:46:04;;;;;;;5.07;1.73;;;;;;;23.84;58.35;100871.94;5057952;28;20041;-79
2021/06/05 06:48:30;;;;;;;2.85;1.50;;;;;;;24.31;58.55;100877.41;5059140;28;20485;-79
2021/06/05 06:50:55;;;;;;;2.47;1.80;;;;;;;24.60;57.24;100881.09;5059071;28;20037;-79
2021/06/05 06:53:21;;;;;;;3.53;1.23;;;;;;;24.94;57.99;100883.97;5035711;28;20483;-79
2021/06/05 06:55:46;;;;;;;4.15;1.83;;;;;;;25.32;54.69;100888.84;5058918;28;20125;-79
2021/06/05 06:58:12;;;;;;;15.07;2.17;;;;;;;25.46;54.99;100893.94;5058076;28;20164;-79
2021/06/05 07:00:44;;;;;;;11.38;2.00;;;;;;;25.68;53.76;100900.34;5031610;28;20048;-79
2021/06/05 07:03:09;;;;;;;3.63;1.45;;;;;;;25.77;52.65;100889.94;5057159;28;20040;-79
2021/06/05 07:05:36;;;;;;;2.95;1.30;;;;;;;25.64;52.35;100899.19;5040516;28;20033;-79
2021/06/05 07:08:14;;;;;;;2.67;1.50;;;;;;;25.90;52.26;100899.66;5039187;28;20574;-79
2021/06/05 07:10:40;;;;;;;2.67;1.42;;;;;;;25.96;51.75;100898.72;5056541;28;20056;-79
2021/06/05 07:13:05;;;;;;;3.47;1.60;;;;;;;25.67;52.44;100906.84;5057643;28;20048;-79
2021/06/05 07:15:31;;;;;;;2.63;1.60;;;;;;;25.48;53.26;100903.50;5040029;28;20095;-79
2021/06/05 07:17:56;;;;;;;2.80;1.75;;;;;;;25.40;52.98;100901.16;5056842;28;20032;-79
2021/06/05 07:20:21;;;;;;;3.15;1.67;;;;;;;24.99;53.05;100898.44;5048304;28;20041;-79
2021/06/05 07:22:47;;;;;;;3.53;1.88;;;;;;;24.48;54.60;100908.13;5057154;28;20036;-79
2021/06/05 07:25:13;;;;;;;3.03;1.92;;;;;;;24.30;55.81;100905.50;5056431;28;20033;-79
2021/06/05 07:27:38;;;;;;;2.80;1.50;;;;;;;24.02;56.58;100908.84;5058098;28;20124;-79
2021/06/05 07:30:05;;;;;;;2.92;1.85;;;;;;;23.81;57.34;100907.50;5049523;28;20063;-79
2021/06/05 07:32:30;;;;;;;5.30;2.10;;;;;;;23.35;58.55;100906.22;5056775;28;20048;-79
2021/06/05 07:34:56;;;;;;;5.85;2.00;;;;;;;23.09;58.95;100903.63;5057450;28;20029;-79
2021/06/05 07:37:22;;;;;;;4.63;2.00;;;;;;;22.97;59.62;100891.91;5056080;28;20033;-79
2021/06/05 07:39:47;;;;;;;3.83;2.05;;;;;;;22.70;60.25;100904.88;5056676;28;20029;-79
2021/06/05 07:42:13;;;;;;;2.78;1.98;;;;;;;22.27;62.40;100898.41;5055497;28;20112;-79
2021/06/05 07:44:38;;;;;;;1999.90;999.90;;;;;;;22.05;63.05;100905.19;5056073;28;20065;-79
2021/06/05 07:47:04;;;;;;;5.57;2.10;;;;;;;21.91;63.16;100900.94;5057005;28;20024;-79
2021/06/05 07:49:34;;;;;;;3.80;2.10;;;;;;;22.02;62.85;100908.31;5038724;28;20040;-79
2021/06/05 07:52:01;;;;;;;3.53;1.88;;;;;;;21.85;64.37;100902.63;5051117;28;20463;-79
2021/06/05 07:54:27;;;;;;;3.90;2.55;;;;;;;21.82;64.39;100903.88;5045360;28;20033;-79
2021/06/05 07:56:52;;;;;;;4.18;2.20;;;;;;;21.61;65.33;100899.66;5054692;28;20063;-79
2021/06/05 07:59:21;;;;;;;4.38;2.00;;;;;;;21.76;64.44;100903.91;5054633;28;20394;-79
2021/06/05 08:01:47;;;;;;;3.95;2.00;;;;;;;21.80;66.51;100903.25;5055283;28;20382;-79
2021/06/05 08:04:13;;;;;;;5.50;2.45;;;;;;;21.79;65.10;100904.31;5055111;28;20036;-79
2021/06/05 08:06:39;;;;;;;4.63;2.70;;;;;;;21.62;66.39;100906.69;5055865;28;20100;-78
2021/06/05 08:09:06;;;;;;;3.47;2.28;;;;;;;21.61;65.91;100910.41;5036938;28;20600;-79
2021/06/05 08:11:33;;;;;;;3.30;2.03;;;;;;;21.65;65.85;100904.63;5055980;28;20041;-79
2021/06/05 08:13:58;;;;;;;3.95;2.30;;;;;;;21.63;66.48;100908.34;5049194;28;20103;-78
2021/06/05 08:16:24;;;;;;;3.83;2.40;;;;;;;21.79;66.41;100909.69;5048494;28;20041;-79
2021/06/05 08:18:49;;;;;;;3.90;2.10;;;;;;;21.87;65.85;100902.41;5057064;28;20029;-78
2021/06/05 08:21:17;;;;;;;3.13;2.08;;;;;;;21.80;65.48;100908.66;5039215;28;20441;-79
2021/06/05 08:23:42;;;;;;;4.18;2.13;;;;;;;21.84;65.54;100909.88;5039208;28;20079;-79
2021/06/05 08:26:10;;;;;;;4.82;2.00;;;;;;;21.73;65.39;100909.75;5056723;28;20491;-79
2021/06/05 08:28:36;;;;;;;4.88;2.10;;;;;;;21.60;66.15;100913.34;5056415;28;20437;-78
2021/06/05 08:31:06;;;;;;;4.57;2.00;;;;;;;21.62;65.18;100908.56;5038752;28;20033;-79
2021/06/05 08:33:31;;;;;;;2.80;1.70;;;;;;;21.52;66.54;100913.56;5051354;28;20036;-79
2021/06/05 08:35:57;;;;;;;4.22;2.05;;;;;;;21.68;65.43;100914.94;5056759;28;20032;-79
2021/06/05 08:38:25;;;;;;;2.92;2.10;;;;;;;21.72;65.12;100913.47;5048120;28;20277;-78
2021/06/05 08:41:02;;;;;;;2.75;1.95;;;;;;;21.59;65.28;100914.38;5056902;28;20028;-79
2021/06/05 08:43:34;;;;;;;4.45;2.03;;;;;;;21.52;65.45;100918.94;5055528;28;20445;-79
2021/06/05 08:46:02;;;;;;;4.38;2.10;;;;;;;21.47;65.45;100910.69;5050201;28;20034;-79
2021/06/05 08:48:27;;;;;;;4.18;1.83;;;;;;;21.45;65.34;100916.28;5037321;28;20029;-79
2021/06/05 08:51:20;;;;;;;3.88;2.00;;;;;;;21.46;65.73;100915.25;5057113;28;20040;-79
2021/06/05 08:53:46;;;;;;;5.80;2.42;;;;;;;21.53;65.69;100920.63;5053429;28;20514;-78
2021/06/05 08:56:16;;;;;;;2.97;1.85;;;;;;;21.47;66.17;100924.97;5056844;28;20044;-79
2021/06/05 08:58:46;;;;;;;3.92;1.95;;;;;;;21.52;66.03;100918.94;5056754;28;20395;-79
2021/06/05 09:01:28;;;;;;;5.25;2.70;;;;;;;21.47;66.87;100926.84;5036735;28;20404;-79
2021/06/05 09:04:00;;;;;;;6.88;2.30;;;;;;;21.55;66.37;100919.38;5052273;28;20029;-79
2021/06/05 09:06:47;;;;;;;4.05;2.40;;;;;;;21.53;66.28;100926.81;5038264;28;20040;-79
2021/06/05 09:09:20;;;;;;;5.55;2.50;;;;;;;21.53;66.06;100926.81;5039060;28;20066;-79
2021/06/05 09:11:46;;;;;;;5.18;2.30;;;;;;;21.61;65.67;100929.25;5044870;28;20037;-79
2021/06/05 09:14:11;;;;;;;4.40;2.72;;;;;;;21.58;65.77;100928.88;5053715;28;20061;-79
2021/06/05 09:16:47;;;;;;;4.38;2.45;;;;;;;21.54;65.90;100938.41;5056796;28;20118;-79
2021/06/05 09:19:31;;;;;;;3.50;2.50;;;;;;;21.45;66.10;100931.63;5058032;28;20032;-79
2021/06/05 09:22:20;;;;;;;4.88;2.17;;;;;;;21.45;66.32;100932.44;5054295;28;20044;-79
2021/06/05 09:24:48;;;;;;;3.33;2.33;;;;;;;21.36;66.71;100939.09;5046390;28;20036;-79
2021/06/05 09:27:16;;;;;;;3.45;2.22;;;;;;;21.30;66.96;100943.44;5056862;28;20092;-79
2021/06/05 09:29:50;;;;;;;4.78;2.45;;;;;;;21.34;66.53;100941.97;5056278;28;20040;-79
2021/06/05 09:32:19;;;;;;;4.68;2.30;;;;;;;21.30;66.62;100939.94;5056699;28;20041;-79
2021/06/05 09:35:10;;;;;;;4.93;2.30;;;;;;;21.25;67.19;100942.44;5056220;28;20029;-78
2021/06/05 09:37:47;;;;;;;4.32;2.60;;;;;;;21.17;67.63;100938.94;5030328;28;20426;-79
2021/06/05 09:40:27;;;;;;;4.50;2.65;;;;;;;21.25;67.19;100943.25;5052594;28;20033;-79
2021/06/05 09:43:12;;;;;;;3.42;2.35;;;;;;;21.28;68.01;100940.13;5056277;28;20474;-78
2021/06/05 09:45:44;;;;;;;6.22;2.70;;;;;;;21.28;68.27;100940.13;5056949;28;20037;-79
2021/06/05 09:48:32;;;;;;;4.43;2.20;;;;;;;21.32;67.52;100933.28;5038442;28;20456;-78
2021/06/05 09:51:01;;;;;;;3.50;2.42;;;;;;;21.29;68.14;100940.97;5037817;28;20037;-79
2021/06/05 09:53:38;;;;;;;5.57;3.08;;;;;;;21.26;68.68;100952.13;5054479;28;20029;-79
2021/06/05 09:56:22;;;;;;;4.75;2.85;;;;;;;21.27;68.08;100935.78;5054840;28;20033;-79
2021/06/05 09:59:03;;;;;;;4.43;2.92;;;;;;;21.18;68.67;100937.88;5050122;28;20033;-79
2021/06/05 10:01:31;;;;;;;5.53;2.70;;;;;;;21.15;68.51;100937.50;5056530;28;20037;-79
2021/06/05 10:04:16;;;;;;;3.67;2.65;;;;;;;21.15;68.75;100937.50;5052976;28;20495;-79
2021/06/05 10:06:46;;;;;;;4.60;2.97;;;;;;;21.21;68.72;100928.56;5056738;28;20033;-79
2021/06/05 10:09:24;;;;;;;5.65;3.10;;;;;;;21.28;68.69;100939.31;5059083;28;20033;-78
2021/06/05 10:11:52;;;;;;;4.35;3.08;;;;;;;21.30;68.70;100932.66;5057823;28;20036;-79
2021/06/05 10:14:25;;;;;;;3.50;2.60;;;;;;;21.46;68.38;100939.47;5057600;28;20033;-79
2021/06/05 10:17:00;;;;;;;3.45;2.95;;;;;;;21.61;67.82;100934.63;5040457;28;20030;-79
2021/06/05 10:19:45;;;;;;;4.28;3.20;;;;;;;21.60;68.24;100937.56;5058732;28;20033;-79
2021/06/05 10:22:12;;;;;;;3.65;2.72;;;;;;;21.72;67.71;100938.53;5056170;28;20033;-79
2021/06/05 10:24:54;;;;;;;4.50;3.38;;;;;;;21.79;66.32;100928.53;5034370;28;20036;-79
2021/06/05 10:27:44;;;;;;;3.85;2.78;;;;;;;21.75;66.97;100927.31;5058160;28;20037;-79
2021/06/05 10:30:36;;;;;;;4.15;2.45;;;;;;;21.83;67.13;100935.16;5037890;28;20040;-79
2021/06/05 10:33:03;;;;;;;5.68;3.15;;;;;;;21.84;67.47;100939.50;5043987;28;20033;-79
2021/06/05 10:35:38;;;;;;;6.80;3.33;;;;;;;21.92;66.43;100932.19;5057298;28;20065;-80
2021/06/05 10:38:10;;;;;;;4.40;2.50;;;;;;;21.91;66.81;100936.75;5048942;28;20041;-79
2021/06/05 10:40:35;;;;;;;4.82;2.60;;;;;;;21.94;66.83;100930.94;5062358;28;20636;-79
2021/06/05 10:43:05;;;;;;;4.25;2.40;;;;;;;22.02;66.40;100930.69;5054350;28;20052;-79
2021/06/05 10:45:38;;;;;;;4.95;3.13;;;;;;;22.03;66.16;100934.19;5058900;28;20040;-79
2021/06/05 10:48:09;;;;;;;6.63;3.58;;;;;;;22.00;66.47;100930.06;5046550;28;20056;-79
2021/06/05 10:50:44;;;;;;;;;;;;;;;21.89;66.05;100881.47;5048149;28;20037;-80
2021/06/05 10:53:34;;;;;;;4.82;3.63;;;;;;;21.97;65.98;100935.06;5045698;28;19916;-79
2021/06/05 10:56:12;;;;;;;4.93;3.88;;;;;;;22.02;65.33;100927.16;5062562;28;20063;-79
2021/06/05 10:58:46;;;;;;;6.07;4.25;;;;;;;21.96;65.35;100922.66;5059142;28;20033;-79
2021/06/05 11:01:31;;;;;;;7.93;4.03;;;;;;;21.98;64.92;100915.19;5056075;28;20025;-79
2021/06/05 11:04:00;;;;;;;6.22;4.20;;;;;;;22.05;64.54;100918.66;5040441;28;20033;-79
2021/06/05 11:06:35;;;;;;;7.30;5.00;;;;;;;22.03;64.04;100923.44;5058697;28;20045;-80
2021/06/05 11:09:30;;;;;;;6.78;5.00;;;;;;;21.94;64.37;100917.47;5051419;28;20037;-79
2021/06/05 11:12:14;;;;;;;6.53;4.32;;;;;;;22.02;64.49;100919.06;5049710;28;20120;-79
2021/06/05 11:14:46;;;;;;;5.50;4.28;;;;;;;22.10;65.15;100916.13;5051655;28;20033;-78
2021/06/05 11:17:32;;;;;;;6.75;3.85;;;;;;;22.20;66.32;100916.50;5018469;28;20041;-79
2021/06/05 11:20:08;;;;;;;7.63;3.92;;;;;;;22.36;66.21;100911.63;5041306;28;20029;-79
2021/06/05 11:22:49;;;;;;;4.18;2.70;;;;;;;22.63;65.56;100915.69;5035301;28;20037;-79
2021/06/05 11:25:14;;;;;;;7.45;4.13;;;;;;;22.87;64.89;100905.91;5017922;28;20402;-79
2021/06/05 11:27:40;;;;;;;6.70;4.25;;;;;;;23.04;63.66;100898.09;5039340;28;20033;-79
2021/06/05 11:30:20;;;;;;;6.43;4.50;;;;;;;23.19;63.12;100899.56;5035607;28;20042;-83
2021/06/05 11:33:03;;;;;;;5.40;3.60;;;;;;;23.39;63.26;100896.63;5033108;28;20057;-84
2021/06/05 11:35:57;;;;;;;6.35;4.00;;;;;;;23.82;62.86;100896.47;5015592;28;20033;-84